sensor_id;sensor_type;location;lat;lon;timestamp;P1;durP1;ratioP1;P2;durP2;ratioP2
15043;SDS011;7619;48.562;8.910;2022-08-27T00:00:34;7.00;;;6.13;;
15043;SDS011;7619;48.562;8.910;2022-08-27T00:03:04;7.03;;;5.90;;
15043;SDS011;7619;48.562;8.910;2022-08-27T00:05:33;7.43;;;6.07;;
15043;SDS011;7619;48.562;8.910;2022-08-27T00:08:03;7.03;;;5.20;;
15043;SDS011;7619;48.562;8.910;2022-08-27T00:10:33;7.90;;;5.83;;
15043;SDS011;7619;48.562;8.910;2022-08-27T00:13:02;7.93;;;6.07;;
15043;SDS011;7619;48.562;8.910;2022-08-27T00:15:31;6.67;;;6.07;;
15043;SDS011;7619;48.562;8.910;2022-08-27T00:18:00;7.73;;;6.07;;
15043;SDS011;7619;48.562;8.910;2022-08-27T00:20:30;7.43;;;6.23;;
15043;SDS011;7619;48.562;8.910;2022-08-27T00:23:00;6.90;;;6.17;;
15043;SDS011;7619;48.562;8.910;2022-08-27T00:28:14;8.17;;;6.70;;
15043;SDS011;7619;48.562;8.910;2022-08-27T00:30:43;10.60;;;8.13;;
15043;SDS011;7619;48.562;8.910;2022-08-27T00:33:13;11.97;;;8.50;;
15043;SDS011;7619;48.562;8.910;2022-08-27T00:35:41;10.03;;;7.43;;
15043;SDS011;7619;48.562;8.910;2022-08-27T00:38:10;11.70;;;7.93;;
15043;SDS011;7619;48.562;8.910;2022-08-27T00:40:40;13.23;;;9.80;;
15043;SDS011;7619;48.562;8.910;2022-08-27T00:43:10;8.47;;;7.60;;
15043;SDS011;7619;48.562;8.910;2022-08-27T00:48:29;8.57;;;6.83;;
15043;SDS011;7619;48.562;8.910;2022-08-27T00:50:58;10.10;;;6.80;;
15043;SDS011;7619;48.562;8.910;2022-08-27T00:53:28;7.33;;;6.13;;
15043;SDS011;7619;48.562;8.910;2022-08-27T00:55:59;6.63;;;5.83;;
15043;SDS011;7619;48.562;8.910;2022-08-27T00:58:30;7.70;;;6.20;;
15043;SDS011;7619;48.562;8.910;2022-08-27T01:00:58;8.20;;;5.97;;
15043;SDS011;7619;48.562;8.910;2022-08-27T01:03:28;8.70;;;6.43;;
15043;SDS011;7619;48.562;8.910;2022-08-27T01:05:57;6.60;;;5.87;;
15043;SDS011;7619;48.562;8.910;2022-08-27T01:08:33;6.37;;;5.57;;
15043;SDS011;7619;48.562;8.910;2022-08-27T01:11:03;6.87;;;6.00;;
15043;SDS011;7619;48.562;8.910;2022-08-27T01:13:39;8.77;;;5.63;;
15043;SDS011;7619;48.562;8.910;2022-08-27T01:21:23;7.80;;;5.47;;
15043;SDS011;7619;48.562;8.910;2022-08-27T01:23:51;7.17;;;5.93;;
15043;SDS011;7619;48.562;8.910;2022-08-27T01:26:22;8.17;;;6.40;;
15043;SDS011;7619;48.562;8.910;2022-08-27T01:28:51;6.80;;;6.10;;
15043;SDS011;7619;48.562;8.910;2022-08-27T01:31:20;8.13;;;6.00;;
15043;SDS011;7619;48.562;8.910;2022-08-27T01:33:54;6.07;;;5.27;;
15043;SDS011;7619;48.562;8.910;2022-08-27T01:36:22;7.37;;;6.47;;
15043;SDS011;7619;48.562;8.910;2022-08-27T01:38:52;6.50;;;5.43;;
15043;SDS011;7619;48.562;8.910;2022-08-27T01:41:22;6.47;;;5.53;;
15043;SDS011;7619;48.562;8.910;2022-08-27T01:43:52;7.83;;;6.30;;
15043;SDS011;7619;48.562;8.910;2022-08-27T01:46:21;12.07;;;6.70;;
15043;SDS011;7619;48.562;8.910;2022-08-27T01:48:51;6.77;;;5.87;;
15043;SDS011;7619;48.562;8.910;2022-08-27T01:51:21;7.13;;;5.87;;
15043;SDS011;7619;48.562;8.910;2022-08-27T01:53:50;8.83;;;7.17;;
15043;SDS011;7619;48.562;8.910;2022-08-27T01:56:19;11.73;;;7.57;;
15043;SDS011;7619;48.562;8.910;2022-08-27T01:58:48;13.07;;;6.67;;
15043;SDS011;7619;48.562;8.910;2022-08-27T02:01:17;8.67;;;6.70;;
15043;SDS011;7619;48.562;8.910;2022-08-27T02:03:47;7.83;;;7.03;;
15043;SDS011;7619;48.562;8.910;2022-08-27T02:06:15;9.33;;;7.17;;
15043;SDS011;7619;48.562;8.910;2022-08-27T02:08:45;11.17;;;6.70;;
15043;SDS011;7619;48.562;8.910;2022-08-27T02:11:15;8.20;;;7.20;;
15043;SDS011;7619;48.562;8.910;2022-08-27T02:13:44;8.37;;;7.40;;
15043;SDS011;7619;48.562;8.910;2022-08-27T02:16:13;8.20;;;7.13;;
15043;SDS011;7619;48.562;8.910;2022-08-27T02:18:42;10.53;;;8.13;;
15043;SDS011;7619;48.562;8.910;2022-08-27T02:21:12;9.97;;;8.27;;
15043;SDS011;7619;48.562;8.910;2022-08-27T02:23:43;11.13;;;8.97;;
15043;SDS011;7619;48.562;8.910;2022-08-27T02:26:12;13.60;;;10.13;;
15043;SDS011;7619;48.562;8.910;2022-08-27T02:28:42;14.80;;;10.03;;
15043;SDS011;7619;48.562;8.910;2022-08-27T02:31:10;13.07;;;9.97;;
15043;SDS011;7619;48.562;8.910;2022-08-27T02:33:40;9.70;;;8.70;;
15043;SDS011;7619;48.562;8.910;2022-08-27T02:36:09;12.33;;;9.63;;
15043;SDS011;7619;48.562;8.910;2022-08-27T02:38:39;12.00;;;10.00;;
15043;SDS011;7619;48.562;8.910;2022-08-27T02:41:08;9.83;;;7.93;;
15043;SDS011;7619;48.562;8.910;2022-08-27T02:43:37;10.20;;;7.90;;
15043;SDS011;7619;48.562;8.910;2022-08-27T02:46:06;10.43;;;7.40;;
15043;SDS011;7619;48.562;8.910;2022-08-27T02:48:37;12.17;;;8.00;;
15043;SDS011;7619;48.562;8.910;2022-08-27T02:51:08;8.77;;;7.33;;
15043;SDS011;7619;48.562;8.910;2022-08-27T02:53:36;10.23;;;8.33;;
15043;SDS011;7619;48.562;8.910;2022-08-27T02:56:06;10.83;;;8.33;;
15043;SDS011;7619;48.562;8.910;2022-08-27T02:58:36;10.80;;;8.27;;
15043;SDS011;7619;48.562;8.910;2022-08-27T03:01:04;14.80;;;9.43;;
15043;SDS011;7619;48.562;8.910;2022-08-27T03:03:33;10.63;;;8.13;;
15043;SDS011;7619;48.562;8.910;2022-08-27T03:06:02;11.07;;;8.00;;
15043;SDS011;7619;48.562;8.910;2022-08-27T03:08:32;12.70;;;8.10;;
15043;SDS011;7619;48.562;8.910;2022-08-27T03:11:02;11.27;;;8.97;;
15043;SDS011;7619;48.562;8.910;2022-08-27T03:13:34;13.40;;;10.03;;
15043;SDS011;7619;48.562;8.910;2022-08-27T03:16:04;15.77;;;10.90;;
15043;SDS011;7619;48.562;8.910;2022-08-27T03:18:33;17.03;;;12.27;;
15043;SDS011;7619;48.562;8.910;2022-08-27T03:21:04;17.67;;;11.27;;
15043;SDS011;7619;48.562;8.910;2022-08-27T03:23:34;12.77;;;10.40;;
15043;SDS011;7619;48.562;8.910;2022-08-27T03:26:02;13.33;;;9.33;;
15043;SDS011;7619;48.562;8.910;2022-08-27T03:28:35;13.43;;;10.27;;
15043;SDS011;7619;48.562;8.910;2022-08-27T03:31:03;12.03;;;8.97;;
15043;SDS011;7619;48.562;8.910;2022-08-27T03:33:37;11.77;;;10.23;;
15043;SDS011;7619;48.562;8.910;2022-08-27T03:36:08;13.70;;;9.60;;
15043;SDS011;7619;48.562;8.910;2022-08-27T03:38:37;12.07;;;9.83;;
15043;SDS011;7619;48.562;8.910;2022-08-27T03:41:06;10.17;;;8.20;;
15043;SDS011;7619;48.562;8.910;2022-08-27T03:43:36;11.03;;;9.60;;
15043;SDS011;7619;48.562;8.910;2022-08-27T03:46:06;11.43;;;9.97;;
15043;SDS011;7619;48.562;8.910;2022-08-27T03:48:36;13.47;;;11.43;;
15043;SDS011;7619;48.562;8.910;2022-08-27T03:51:06;15.57;;;11.70;;
15043;SDS011;7619;48.562;8.910;2022-08-27T03:56:14;15.87;;;12.03;;
15043;SDS011;7619;48.562;8.910;2022-08-27T04:03:57;19.17;;;14.63;;
15043;SDS011;7619;48.562;8.910;2022-08-27T04:06:26;22.47;;;16.33;;
15043;SDS011;7619;48.562;8.910;2022-08-27T04:08:55;24.33;;;15.97;;
15043;SDS011;7619;48.562;8.910;2022-08-27T04:11:24;24.80;;;18.27;;
15043;SDS011;7619;48.562;8.910;2022-08-27T04:13:54;24.83;;;18.83;;
15043;SDS011;7619;48.562;8.910;2022-08-27T04:16:23;28.63;;;19.20;;
15043;SDS011;7619;48.562;8.910;2022-08-27T04:18:52;28.50;;;20.60;;
15043;SDS011;7619;48.562;8.910;2022-08-27T04:21:22;31.10;;;21.13;;
15043;SDS011;7619;48.562;8.910;2022-08-27T04:23:51;25.27;;;19.03;;
15043;SDS011;7619;48.562;8.910;2022-08-27T04:26:20;29.17;;;20.73;;
15043;SDS011;7619;48.562;8.910;2022-08-27T04:28:50;31.33;;;22.07;;
15043;SDS011;7619;48.562;8.910;2022-08-27T04:31:18;31.53;;;24.90;;
15043;SDS011;7619;48.562;8.910;2022-08-27T04:33:47;30.27;;;21.63;;
15043;SDS011;7619;48.562;8.910;2022-08-27T04:36:17;29.00;;;22.73;;
15043;SDS011;7619;48.562;8.910;2022-08-27T04:38:46;30.60;;;22.87;;
15043;SDS011;7619;48.562;8.910;2022-08-27T04:41:15;29.60;;;23.20;;
15043;SDS011;7619;48.562;8.910;2022-08-27T04:43:52;34.80;;;23.37;;
15043;SDS011;7619;48.562;8.910;2022-08-27T04:46:23;31.60;;;22.60;;
15043;SDS011;7619;48.562;8.910;2022-08-27T04:48:51;32.17;;;21.57;;
15043;SDS011;7619;48.562;8.910;2022-08-27T04:51:21;31.03;;;23.43;;
15043;SDS011;7619;48.562;8.910;2022-08-27T04:53:51;30.83;;;22.93;;
15043;SDS011;7619;48.562;8.910;2022-08-27T04:56:19;32.53;;;23.93;;
15043;SDS011;7619;48.562;8.910;2022-08-27T04:58:50;31.07;;;21.97;;
15043;SDS011;7619;48.562;8.910;2022-08-27T05:01:21;28.80;;;23.33;;
15043;SDS011;7619;48.562;8.910;2022-08-27T05:03:55;31.87;;;23.20;;
15043;SDS011;7619;48.562;8.910;2022-08-27T05:06:26;31.60;;;23.33;;
15043;SDS011;7619;48.562;8.910;2022-08-27T05:08:54;30.83;;;22.80;;
15043;SDS011;7619;48.562;8.910;2022-08-27T05:11:24;29.97;;;22.63;;
15043;SDS011;7619;48.562;8.910;2022-08-27T05:13:56;35.67;;;25.37;;
15043;SDS011;7619;48.562;8.910;2022-08-27T05:16:25;35.83;;;25.10;;
15043;SDS011;7619;48.562;8.910;2022-08-27T05:18:56;35.67;;;25.87;;
15043;SDS011;7619;48.562;8.910;2022-08-27T05:21:27;33.93;;;24.07;;
15043;SDS011;7619;48.562;8.910;2022-08-27T05:23:58;38.27;;;26.33;;
15043;SDS011;7619;48.562;8.910;2022-08-27T05:26:29;38.13;;;27.30;;
15043;SDS011;7619;48.562;8.910;2022-08-27T05:29:00;38.97;;;26.30;;
15043;SDS011;7619;48.562;8.910;2022-08-27T05:31:32;37.70;;;27.17;;
15043;SDS011;7619;48.562;8.910;2022-08-27T05:34:01;35.63;;;26.50;;
15043;SDS011;7619;48.562;8.910;2022-08-27T05:36:32;36.23;;;26.43;;
15043;SDS011;7619;48.562;8.910;2022-08-27T05:39:03;40.30;;;27.03;;
15043;SDS011;7619;48.562;8.910;2022-08-27T05:41:33;33.50;;;25.77;;
15043;SDS011;7619;48.562;8.910;2022-08-27T05:44:01;35.87;;;25.37;;
15043;SDS011;7619;48.562;8.910;2022-08-27T05:46:33;36.63;;;26.83;;
15043;SDS011;7619;48.562;8.910;2022-08-27T05:49:03;44.67;;;28.63;;
15043;SDS011;7619;48.562;8.910;2022-08-27T05:51:33;39.03;;;28.00;;
15043;SDS011;7619;48.562;8.910;2022-08-27T05:54:04;40.00;;;27.03;;
15043;SDS011;7619;48.562;8.910;2022-08-27T05:56:36;37.97;;;27.57;;
15043;SDS011;7619;48.562;8.910;2022-08-27T05:59:05;38.87;;;26.03;;
15043;SDS011;7619;48.562;8.910;2022-08-27T06:02:02;35.00;;;26.40;;
15043;SDS011;7619;48.562;8.910;2022-08-27T06:04:31;35.07;;;25.53;;
15043;SDS011;7619;48.562;8.910;2022-08-27T06:07:00;34.27;;;25.57;;
15043;SDS011;7619;48.562;8.910;2022-08-27T06:09:29;30.67;;;22.93;;
15043;SDS011;7619;48.562;8.910;2022-08-27T06:11:58;33.87;;;25.40;;
15043;SDS011;7619;48.562;8.910;2022-08-27T06:14:27;42.90;;;26.37;;
15043;SDS011;7619;48.562;8.910;2022-08-27T06:16:59;34.37;;;24.60;;
15043;SDS011;7619;48.562;8.910;2022-08-27T06:19:28;31.10;;;24.47;;
15043;SDS011;7619;48.562;8.910;2022-08-27T06:21:59;36.53;;;23.87;;
15043;SDS011;7619;48.562;8.910;2022-08-27T06:24:28;32.93;;;23.67;;
15043;SDS011;7619;48.562;8.910;2022-08-27T06:26:57;30.43;;;20.93;;
15043;SDS011;7619;48.562;8.910;2022-08-27T06:29:26;27.37;;;21.97;;
15043;SDS011;7619;48.562;8.910;2022-08-27T06:31:55;34.17;;;24.00;;
15043;SDS011;7619;48.562;8.910;2022-08-27T06:34:23;30.03;;;22.53;;
15043;SDS011;7619;48.562;8.910;2022-08-27T06:36:51;27.63;;;22.57;;
15043;SDS011;7619;48.562;8.910;2022-08-27T06:39:21;25.97;;;20.77;;
15043;SDS011;7619;48.562;8.910;2022-08-27T06:41:49;26.53;;;21.23;;
15043;SDS011;7619;48.562;8.910;2022-08-27T06:44:18;26.60;;;20.37;;
15043;SDS011;7619;48.562;8.910;2022-08-27T06:46:49;29.60;;;20.80;;
15043;SDS011;7619;48.562;8.910;2022-08-27T06:49:18;23.20;;;19.43;;
15043;SDS011;7619;48.562;8.910;2022-08-27T06:51:49;24.90;;;19.70;;
15043;SDS011;7619;48.562;8.910;2022-08-27T06:54:17;29.37;;;21.77;;
15043;SDS011;7619;48.562;8.910;2022-08-27T06:56:48;28.33;;;19.97;;
15043;SDS011;7619;48.562;8.910;2022-08-27T06:59:17;32.33;;;20.20;;
15043;SDS011;7619;48.562;8.910;2022-08-27T07:01:47;25.77;;;19.67;;
15043;SDS011;7619;48.562;8.910;2022-08-27T07:04:20;23.53;;;18.03;;
15043;SDS011;7619;48.562;8.910;2022-08-27T07:06:51;21.43;;;18.07;;
15043;SDS011;7619;48.562;8.910;2022-08-27T07:09:20;20.33;;;18.13;;
15043;SDS011;7619;48.562;8.910;2022-08-27T07:11:49;21.77;;;16.60;;
15043;SDS011;7619;48.562;8.910;2022-08-27T07:14:20;23.40;;;17.67;;
15043;SDS011;7619;48.562;8.910;2022-08-27T07:16:48;23.13;;;17.73;;
15043;SDS011;7619;48.562;8.910;2022-08-27T07:19:17;21.90;;;18.13;;
15043;SDS011;7619;48.562;8.910;2022-08-27T07:21:46;21.77;;;16.97;;
15043;SDS011;7619;48.562;8.910;2022-08-27T07:24:16;23.47;;;17.23;;
15043;SDS011;7619;48.562;8.910;2022-08-27T07:26:45;21.77;;;18.13;;
15043;SDS011;7619;48.562;8.910;2022-08-27T07:29:14;20.73;;;18.37;;
15043;SDS011;7619;48.562;8.910;2022-08-27T07:31:43;22.13;;;17.40;;
15043;SDS011;7619;48.562;8.910;2022-08-27T07:34:12;22.67;;;17.00;;
15043;SDS011;7619;48.562;8.910;2022-08-27T07:36:41;18.47;;;16.37;;
15043;SDS011;7619;48.562;8.910;2022-08-27T07:39:10;21.57;;;18.03;;
15043;SDS011;7619;48.562;8.910;2022-08-27T07:41:42;21.60;;;17.10;;
15043;SDS011;7619;48.562;8.910;2022-08-27T07:44:29;19.93;;;17.00;;
15043;SDS011;7619;48.562;8.910;2022-08-27T07:46:56;18.93;;;16.40;;
15043;SDS011;7619;48.562;8.910;2022-08-27T07:49:27;18.50;;;15.90;;
15043;SDS011;7619;48.562;8.910;2022-08-27T07:52:00;18.80;;;16.00;;
15043;SDS011;7619;48.562;8.910;2022-08-27T07:54:29;16.93;;;14.37;;
15043;SDS011;7619;48.562;8.910;2022-08-27T07:56:58;17.50;;;14.67;;
15043;SDS011;7619;48.562;8.910;2022-08-27T07:59:30;16.77;;;13.93;;
15043;SDS011;7619;48.562;8.910;2022-08-27T08:01:58;17.30;;;14.63;;
15043;SDS011;7619;48.562;8.910;2022-08-27T08:04:27;15.27;;;13.67;;
15043;SDS011;7619;48.562;8.910;2022-08-27T08:06:56;15.47;;;12.30;;
15043;SDS011;7619;48.562;8.910;2022-08-27T08:09:25;14.77;;;13.17;;
15043;SDS011;7619;48.562;8.910;2022-08-27T08:11:56;13.83;;;12.33;;
15043;SDS011;7619;48.562;8.910;2022-08-27T08:14:24;14.30;;;12.53;;
15043;SDS011;7619;48.562;8.910;2022-08-27T08:16:58;14.13;;;11.70;;
15043;SDS011;7619;48.562;8.910;2022-08-27T08:19:27;12.87;;;11.57;;
15043;SDS011;7619;48.562;8.910;2022-08-27T08:21:56;13.80;;;11.40;;
15043;SDS011;7619;48.562;8.910;2022-08-27T08:24:26;12.37;;;10.57;;
15043;SDS011;7619;48.562;8.910;2022-08-27T08:26:54;13.27;;;11.03;;
15043;SDS011;7619;48.562;8.910;2022-08-27T08:29:23;12.20;;;10.50;;
15043;SDS011;7619;48.562;8.910;2022-08-27T08:31:54;12.80;;;9.83;;
15043;SDS011;7619;48.562;8.910;2022-08-27T08:34:23;10.10;;;9.10;;
15043;SDS011;7619;48.562;8.910;2022-08-27T08:36:55;11.37;;;10.27;;
15043;SDS011;7619;48.562;8.910;2022-08-27T08:39:22;11.33;;;9.93;;
15043;SDS011;7619;48.562;8.910;2022-08-27T08:41:54;10.50;;;9.50;;
15043;SDS011;7619;48.562;8.910;2022-08-27T08:44:27;10.63;;;9.53;;
15043;SDS011;7619;48.562;8.910;2022-08-27T08:46:59;10.83;;;9.63;;
15043;SDS011;7619;48.562;8.910;2022-08-27T08:49:33;10.43;;;9.33;;
15043;SDS011;7619;48.562;8.910;2022-08-27T08:52:09;11.93;;;10.10;;
15043;SDS011;7619;48.562;8.910;2022-08-27T08:54:42;10.60;;;9.20;;
15043;SDS011;7619;48.562;8.910;2022-08-27T08:57:15;11.47;;;9.60;;
15043;SDS011;7619;48.562;8.910;2022-08-27T08:59:46;14.40;;;10.00;;
15043;SDS011;7619;48.562;8.910;2022-08-27T09:02:14;12.37;;;9.60;;
15043;SDS011;7619;48.562;8.910;2022-08-27T09:04:43;12.40;;;11.10;;
15043;SDS011;7619;48.562;8.910;2022-08-27T09:07:14;11.70;;;10.50;;
15043;SDS011;7619;48.562;8.910;2022-08-27T09:09:45;12.97;;;10.33;;
15043;SDS011;7619;48.562;8.910;2022-08-27T09:12:16;11.77;;;10.57;;
15043;SDS011;7619;48.562;8.910;2022-08-27T09:14:49;12.93;;;9.53;;
15043;SDS011;7619;48.562;8.910;2022-08-27T09:17:21;12.60;;;10.90;;
15043;SDS011;7619;48.562;8.910;2022-08-27T09:19:50;13.00;;;11.60;;
15043;SDS011;7619;48.562;8.910;2022-08-27T09:22:20;13.80;;;12.07;;
15043;SDS011;7619;48.562;8.910;2022-08-27T09:24:58;13.27;;;11.07;;
15043;SDS011;7619;48.562;8.910;2022-08-27T09:27:27;14.53;;;11.23;;
15043;SDS011;7619;48.562;8.910;2022-08-27T09:29:57;14.30;;;12.50;;
15043;SDS011;7619;48.562;8.910;2022-08-27T09:32:31;14.37;;;12.30;;
15043;SDS011;7619;48.562;8.910;2022-08-27T09:34:59;17.17;;;12.30;;
15043;SDS011;7619;48.562;8.910;2022-08-27T09:37:29;16.40;;;12.47;;
15043;SDS011;7619;48.562;8.910;2022-08-27T09:39:59;13.77;;;11.57;;
15043;SDS011;7619;48.562;8.910;2022-08-27T09:42:34;13.77;;;12.30;;
15043;SDS011;7619;48.562;8.910;2022-08-27T09:45:09;17.20;;;13.47;;
15043;SDS011;7619;48.562;8.910;2022-08-27T09:47:42;14.30;;;12.53;;
15043;SDS011;7619;48.562;8.910;2022-08-27T09:50:13;14.50;;;12.13;;
15043;SDS011;7619;48.562;8.910;2022-08-27T09:52:48;15.70;;;12.30;;
15043;SDS011;7619;48.562;8.910;2022-08-27T09:55:36;17.63;;;14.47;;
15043;SDS011;7619;48.562;8.910;2022-08-27T09:58:03;14.07;;;12.47;;
15043;SDS011;7619;48.562;8.910;2022-08-27T10:00:35;16.33;;;13.07;;
15043;SDS011;7619;48.562;8.910;2022-08-27T10:03:07;18.50;;;13.93;;
15043;SDS011;7619;48.562;8.910;2022-08-27T10:05:38;14.50;;;12.93;;
15043;SDS011;7619;48.562;8.910;2022-08-27T10:08:15;13.57;;;12.07;;
15043;SDS011;7619;48.562;8.910;2022-08-27T10:10:48;16.33;;;13.53;;
15043;SDS011;7619;48.562;8.910;2022-08-27T10:13:20;14.93;;;12.53;;
15043;SDS011;7619;48.562;8.910;2022-08-27T10:16:01;15.20;;;12.30;;
15043;SDS011;7619;48.562;8.910;2022-08-27T10:18:46;18.47;;;13.50;;
15043;SDS011;7619;48.562;8.910;2022-08-27T10:21:19;14.33;;;12.50;;
15043;SDS011;7619;48.562;8.910;2022-08-27T10:23:53;19.30;;;13.70;;
15043;SDS011;7619;48.562;8.910;2022-08-27T10:26:25;16.53;;;11.57;;
15043;SDS011;7619;48.562;8.910;2022-08-27T10:29:00;15.47;;;12.17;;
15043;SDS011;7619;48.562;8.910;2022-08-27T10:31:32;16.80;;;13.20;;
15043;SDS011;7619;48.562;8.910;2022-08-27T10:34:09;16.23;;;11.53;;
15043;SDS011;7619;48.562;8.910;2022-08-27T10:36:45;14.50;;;12.47;;
15043;SDS011;7619;48.562;8.910;2022-08-27T10:39:19;16.50;;;12.33;;
15043;SDS011;7619;48.562;8.910;2022-08-27T10:41:51;16.20;;;13.13;;
15043;SDS011;7619;48.562;8.910;2022-08-27T10:44:26;19.80;;;12.73;;
15043;SDS011;7619;48.562;8.910;2022-08-27T10:47:05;21.30;;;15.00;;
15043;SDS011;7619;48.562;8.910;2022-08-27T10:49:41;18.67;;;14.33;;
15043;SDS011;7619;48.562;8.910;2022-08-27T10:52:16;15.90;;;13.83;;
15043;SDS011;7619;48.562;8.910;2022-08-27T10:54:46;17.90;;;12.50;;
15043;SDS011;7619;48.562;8.910;2022-08-27T10:57:21;17.33;;;13.27;;
15043;SDS011;7619;48.562;8.910;2022-08-27T10:59:53;15.97;;;12.13;;
15043;SDS011;7619;48.562;8.910;2022-08-27T11:02:27;15.13;;;12.93;;
15043;SDS011;7619;48.562;8.910;2022-08-27T11:05:02;13.53;;;11.90;;
15043;SDS011;7619;48.562;8.910;2022-08-27T11:07:31;15.70;;;12.40;;
15043;SDS011;7619;48.562;8.910;2022-08-27T11:10:03;13.60;;;11.97;;
15043;SDS011;7619;48.562;8.910;2022-08-27T11:12:40;16.10;;;13.20;;
15043;SDS011;7619;48.562;8.910;2022-08-27T11:15:08;14.00;;;11.47;;
15043;SDS011;7619;48.562;8.910;2022-08-27T11:17:42;18.40;;;12.30;;
15043;SDS011;7619;48.562;8.910;2022-08-27T11:20:17;13.50;;;10.13;;
15043;SDS011;7619;48.562;8.910;2022-08-27T11:22:48;14.03;;;11.10;;
15043;SDS011;7619;48.562;8.910;2022-08-27T11:25:26;12.83;;;10.47;;
15043;SDS011;7619;48.562;8.910;2022-08-27T11:27:59;11.90;;;8.73;;
15043;SDS011;7619;48.562;8.910;2022-08-27T11:30:33;10.73;;;9.10;;
15043;SDS011;7619;48.562;8.910;2022-08-27T11:33:08;11.33;;;8.73;;
15043;SDS011;7619;48.562;8.910;2022-08-27T11:35:44;9.43;;;6.97;;
15043;SDS011;7619;48.562;8.910;2022-08-27T11:38:21;7.87;;;6.60;;
15043;SDS011;7619;48.562;8.910;2022-08-27T11:41:00;8.73;;;6.93;;
15043;SDS011;7619;48.562;8.910;2022-08-27T11:43:54;7.43;;;6.13;;
15043;SDS011;7619;48.562;8.910;2022-08-27T11:46:25;7.30;;;5.80;;
15043;SDS011;7619;48.562;8.910;2022-08-27T11:48:57;7.17;;;6.47;;
15043;SDS011;7619;48.562;8.910;2022-08-27T11:51:29;7.37;;;5.60;;
15043;SDS011;7619;48.562;8.910;2022-08-27T11:54:01;8.80;;;6.03;;
15043;SDS011;7619;48.562;8.910;2022-08-27T11:56:34;7.83;;;5.60;;
15043;SDS011;7619;48.562;8.910;2022-08-27T11:59:08;9.10;;;6.47;;
15043;SDS011;7619;48.562;8.910;2022-08-27T12:01:48;8.13;;;6.17;;
15043;SDS011;7619;48.562;8.910;2022-08-27T12:04:32;7.40;;;6.27;;
15043;SDS011;7619;48.562;8.910;2022-08-27T12:07:04;7.60;;;6.90;;
15043;SDS011;7619;48.562;8.910;2022-08-27T12:09:52;8.87;;;6.57;;
15043;SDS011;7619;48.562;8.910;2022-08-27T12:12:22;8.43;;;6.53;;
15043;SDS011;7619;48.562;8.910;2022-08-27T12:14:57;8.43;;;6.57;;
15043;SDS011;7619;48.562;8.910;2022-08-27T12:17:33;8.60;;;6.67;;
15043;SDS011;7619;48.562;8.910;2022-08-27T12:20:05;9.73;;;7.07;;
15043;SDS011;7619;48.562;8.910;2022-08-27T12:25:53;8.03;;;6.87;;
15043;SDS011;7619;48.562;8.910;2022-08-27T12:28:22;9.03;;;7.83;;
15043;SDS011;7619;48.562;8.910;2022-08-27T12:30:52;11.83;;;7.73;;
15043;SDS011;7619;48.562;8.910;2022-08-27T12:33:26;10.47;;;7.73;;
15043;SDS011;7619;48.562;8.910;2022-08-27T12:36:02;10.10;;;8.00;;
15043;SDS011;7619;48.562;8.910;2022-08-27T12:38:37;11.47;;;7.87;;
15043;SDS011;7619;48.562;8.910;2022-08-27T12:41:06;11.37;;;8.73;;
15043;SDS011;7619;48.562;8.910;2022-08-27T12:43:35;8.73;;;7.40;;
15043;SDS011;7619;48.562;8.910;2022-08-27T12:46:07;9.37;;;7.27;;
15043;SDS011;7619;48.562;8.910;2022-08-27T12:48:42;9.47;;;7.50;;
15043;SDS011;7619;48.562;8.910;2022-08-27T12:51:15;9.87;;;7.80;;
15043;SDS011;7619;48.562;8.910;2022-08-27T12:53:46;9.20;;;7.80;;
15043;SDS011;7619;48.562;8.910;2022-08-27T12:56:40;9.27;;;7.57;;
15043;SDS011;7619;48.562;8.910;2022-08-27T12:59:38;10.60;;;7.37;;
15043;SDS011;7619;48.562;8.910;2022-08-27T13:02:08;8.93;;;7.23;;
15043;SDS011;7619;48.562;8.910;2022-08-27T13:04:42;10.47;;;7.83;;
15043;SDS011;7619;48.562;8.910;2022-08-27T13:07:15;9.43;;;7.73;;
15043;SDS011;7619;48.562;8.910;2022-08-27T13:09:54;10.43;;;8.10;;
15043;SDS011;7619;48.562;8.910;2022-08-27T13:12:22;9.83;;;8.00;;
15043;SDS011;7619;48.562;8.910;2022-08-27T13:14:51;8.50;;;7.47;;
15043;SDS011;7619;48.562;8.910;2022-08-27T13:17:20;9.07;;;8.00;;
15043;SDS011;7619;48.562;8.910;2022-08-27T13:19:52;9.20;;;8.03;;
15043;SDS011;7619;48.562;8.910;2022-08-27T13:22:22;9.60;;;8.00;;
15043;SDS011;7619;48.562;8.910;2022-08-27T13:24:51;9.80;;;7.80;;
15043;SDS011;7619;48.562;8.910;2022-08-27T13:27:25;9.90;;;8.63;;
15043;SDS011;7619;48.562;8.910;2022-08-27T13:29:56;8.63;;;7.50;;
15043;SDS011;7619;48.562;8.910;2022-08-27T13:32:31;10.57;;;8.27;;
15043;SDS011;7619;48.562;8.910;2022-08-27T13:35:02;10.80;;;8.77;;
15043;SDS011;7619;48.562;8.910;2022-08-27T13:37:35;8.53;;;7.63;;
15043;SDS011;7619;48.562;8.910;2022-08-27T13:40:07;8.60;;;7.70;;
15043;SDS011;7619;48.562;8.910;2022-08-27T13:42:39;8.57;;;7.67;;
15043;SDS011;7619;48.562;8.910;2022-08-27T13:45:10;9.83;;;7.73;;
15043;SDS011;7619;48.562;8.910;2022-08-27T13:47:40;8.60;;;7.73;;
15043;SDS011;7619;48.562;8.910;2022-08-27T13:50:13;10.97;;;8.60;;
15043;SDS011;7619;48.562;8.910;2022-08-27T13:52:46;9.80;;;8.77;;
15043;SDS011;7619;48.562;8.910;2022-08-27T13:55:32;10.53;;;8.47;;
15043;SDS011;7619;48.562;8.910;2022-08-27T13:58:10;11.93;;;8.50;;
15043;SDS011;7619;48.562;8.910;2022-08-27T14:03:30;10.70;;;8.87;;
15043;SDS011;7619;48.562;8.910;2022-08-27T14:06:09;10.27;;;9.17;;
15043;SDS011;7619;48.562;8.910;2022-08-27T14:08:39;10.27;;;8.50;;
15043;SDS011;7619;48.562;8.910;2022-08-27T14:11:08;12.90;;;9.97;;
15043;SDS011;7619;48.562;8.910;2022-08-27T14:16:27;11.90;;;9.53;;
15043;SDS011;7619;48.562;8.910;2022-08-27T14:19:02;10.07;;;9.03;;
15043;SDS011;7619;48.562;8.910;2022-08-27T14:21:41;9.60;;;8.67;;
15043;SDS011;7619;48.562;8.910;2022-08-27T14:24:10;10.73;;;9.37;;
15043;SDS011;7619;48.562;8.910;2022-08-27T14:26:39;10.27;;;9.00;;
15043;SDS011;7619;48.562;8.910;2022-08-27T14:29:08;12.53;;;9.90;;
15043;SDS011;7619;48.562;8.910;2022-08-27T14:31:37;15.73;;;10.03;;
15043;SDS011;7619;48.562;8.910;2022-08-27T14:34:07;13.50;;;9.93;;
15043;SDS011;7619;48.562;8.910;2022-08-27T14:36:36;11.30;;;9.73;;
15043;SDS011;7619;48.562;8.910;2022-08-27T14:39:06;10.93;;;9.60;;
15043;SDS011;7619;48.562;8.910;2022-08-27T14:41:36;10.73;;;9.67;;
15043;SDS011;7619;48.562;8.910;2022-08-27T14:44:05;10.47;;;9.40;;
15043;SDS011;7619;48.562;8.910;2022-08-27T14:46:35;11.70;;;9.73;;
15043;SDS011;7619;48.562;8.910;2022-08-27T14:49:06;12.30;;;9.17;;
15043;SDS011;7619;48.562;8.910;2022-08-27T14:51:39;14.50;;;9.97;;
15043;SDS011;7619;48.562;8.910;2022-08-27T14:54:08;13.70;;;11.07;;
15043;SDS011;7619;48.562;8.910;2022-08-27T14:56:37;15.43;;;9.73;;
15043;SDS011;7619;48.562;8.910;2022-08-27T14:59:06;12.33;;;10.63;;
15043;SDS011;7619;48.562;8.910;2022-08-27T15:01:35;15.93;;;10.00;;
15043;SDS011;7619;48.562;8.910;2022-08-27T15:04:04;12.33;;;9.80;;
15043;SDS011;7619;48.562;8.910;2022-08-27T15:06:34;11.30;;;9.47;;
15043;SDS011;7619;48.562;8.910;2022-08-27T15:09:03;12.03;;;9.87;;
15043;SDS011;7619;48.562;8.910;2022-08-27T15:11:32;10.93;;;9.50;;
15043;SDS011;7619;48.562;8.910;2022-08-27T15:14:04;13.87;;;9.60;;
15043;SDS011;7619;48.562;8.910;2022-08-27T15:16:36;15.33;;;9.80;;
15043;SDS011;7619;48.562;8.910;2022-08-27T15:19:08;16.07;;;10.93;;
15043;SDS011;7619;48.562;8.910;2022-08-27T15:21:39;10.83;;;9.00;;
15043;SDS011;7619;48.562;8.910;2022-08-27T15:24:11;12.00;;;8.83;;
15043;SDS011;7619;48.562;8.910;2022-08-27T15:26:43;13.30;;;10.50;;
15043;SDS011;7619;48.562;8.910;2022-08-27T15:29:12;12.27;;;8.37;;
15043;SDS011;7619;48.562;8.910;2022-08-27T15:31:42;10.60;;;8.83;;
15043;SDS011;7619;48.562;8.910;2022-08-27T15:34:11;12.73;;;8.40;;